sensor_id;sensor_type;location;lat;lon;timestamp;pressure;altitude;pressure_sealevel;temperature;humidity
804;BME280;25687;49.976;8.240;2023-07-08T00:01:20;100154.50;;;20.06;94.52
804;BME280;25687;49.976;8.240;2023-07-08T00:03:45;100147.31;;;20.08;94.27
804;BME280;25687;49.976;8.240;2023-07-08T00:06:22;100141.13;;;20.09;93.75
804;BME280;25687;49.976;8.240;2023-07-08T00:08:48;100136.91;;;19.98;95.19
804;BME280;25687;49.976;8.240;2023-07-08T00:11:14;100131.44;;;20.01;95.45
804;BME280;25687;49.976;8.240;2023-07-08T00:13:40;100132.78;;;20.05;95.83
804;BME280;25687;49.976;8.240;2023-07-08T00:16:14;100128.97;;;19.99;96.59
804;BME280;25687;49.976;8.240;2023-07-08T00:18:40;100134.19;;;19.99;96.75
804;BME280;25687;49.976;8.240;2023-07-08T00:21:11;100136.91;;;19.98;96.97
804;BME280;25687;49.976;8.240;2023-07-08T00:23:39;100127.31;;;19.98;96.67
804;BME280;25687;49.976;8.240;2023-07-08T00:28:42;100142.28;;;19.96;95.92
804;BME280;25687;49.976;8.240;2023-07-08T00:31:09;100144.22;;;19.94;95.17
804;BME280;25687;49.976;8.240;2023-07-08T00:33:35;100145.47;;;19.90;94.62
804;BME280;25687;49.976;8.240;2023-07-08T00:36:00;100141.38;;;19.88;95.76
804;BME280;25687;49.976;8.240;2023-07-08T00:38:27;100152.06;;;19.84;95.56
804;BME280;25687;49.976;8.240;2023-07-08T00:43:41;100154.00;;;19.82;93.07
804;BME280;25687;49.976;8.240;2023-07-08T00:47:03;100150.69;;;19.80;93.26
804;BME280;25687;49.976;8.240;2023-07-08T00:49:36;100141.91;;;19.91;90.96
804;BME280;25687;49.976;8.240;2023-07-08T00:54:59;100146.13;;;20.02;90.37
804;BME280;25687;49.976;8.240;2023-07-08T00:57:29;100140.91;;;20.02;91.50
804;BME280;25687;49.976;8.240;2023-07-08T01:00:04;100134.56;;;20.05;92.35
804;BME280;25687;49.976;8.240;2023-07-08T01:02:33;100137.41;;;20.11;92.55
804;BME280;25687;49.976;8.240;2023-07-08T01:05:12;100139.00;;;19.94;94.02
804;BME280;25687;49.976;8.240;2023-07-08T01:07:41;100136.44;;;20.12;93.14
804;BME280;25687;49.976;8.240;2023-07-08T01:10:14;100132.72;;;20.15;92.51
804;BME280;25687;49.976;8.240;2023-07-08T01:12:49;100134.81;;;20.11;93.56
804;BME280;25687;49.976;8.240;2023-07-08T01:15:16;100145.19;;;20.21;93.39
804;BME280;25687;49.976;8.240;2023-07-08T01:17:43;100141.78;;;20.21;94.06
804;BME280;25687;49.976;8.240;2023-07-08T01:20:09;100145.72;;;20.25;94.80
804;BME280;25687;49.976;8.240;2023-07-08T01:22:39;100137.91;;;20.25;94.12
804;BME280;25687;49.976;8.240;2023-07-08T01:25:07;100126.06;;;20.03;95.96
804;BME280;25687;49.976;8.240;2023-07-08T01:27:36;100114.78;;;20.02;96.95
804;BME280;25687;49.976;8.240;2023-07-08T01:30:03;100106.31;;;19.90;97.35
804;BME280;25687;49.976;8.240;2023-07-08T01:32:29;100110.44;;;19.93;96.84
804;BME280;25687;49.976;8.240;2023-07-08T01:34:59;100094.50;;;19.96;97.06
804;BME280;25687;49.976;8.240;2023-07-08T01:37:29;100093.59;;;20.05;95.86
804;BME280;25687;49.976;8.240;2023-07-08T01:39:56;100101.59;;;20.04;97.43
804;BME280;25687;49.976;8.240;2023-07-08T01:42:21;100087.69;;;20.03;97.91
804;BME280;25687;49.976;8.240;2023-07-08T01:44:47;100089.81;;;19.99;98.57
804;BME280;25687;49.976;8.240;2023-07-08T01:47:18;100095.72;;;19.92;98.85
804;BME280;25687;49.976;8.240;2023-07-08T01:49:46;100111.00;;;19.87;100.00
804;BME280;25687;49.976;8.240;2023-07-08T01:52:14;100122.72;;;19.73;100.00
804;BME280;25687;49.976;8.240;2023-07-08T01:54:41;100128.66;;;19.55;100.00
804;BME280;25687;49.976;8.240;2023-07-08T01:57:06;100132.56;;;19.31;100.00
804;BME280;25687;49.976;8.240;2023-07-08T01:59:31;100116.66;;;19.05;100.00
804;BME280;25687;49.976;8.240;2023-07-08T02:01:57;100121.44;;;18.90;100.00
804;BME280;25687;49.976;8.240;2023-07-08T02:04:23;100115.16;;;19.02;100.00
804;BME280;25687;49.976;8.240;2023-07-08T02:06:59;100115.53;;;19.17;99.63
804;BME280;25687;49.976;8.240;2023-07-08T02:09:25;100116.78;;;19.33;100.00
804;BME280;25687;49.976;8.240;2023-07-08T02:11:51;100119.78;;;19.28;100.00
804;BME280;25687;49.976;8.240;2023-07-08T02:14:17;100133.78;;;19.17;100.00
804;BME280;25687;49.976;8.240;2023-07-08T02:16:42;100136.44;;;19.08;100.00
804;BME280;25687;49.976;8.240;2023-07-08T02:19:09;100129.84;;;19.03;100.00
804;BME280;25687;49.976;8.240;2023-07-08T02:21:35;100128.31;;;18.91;100.00
804;BME280;25687;49.976;8.240;2023-07-08T02:24:00;100124.31;;;18.67;100.00
804;BME280;25687;49.976;8.240;2023-07-08T02:26:26;100121.97;;;18.45;100.00
804;BME280;25687;49.976;8.240;2023-07-08T02:28:51;100112.88;;;18.39;100.00
804;BME280;25687;49.976;8.240;2023-07-08T02:31:16;100115.03;;;18.24;100.00
804;BME280;25687;49.976;8.240;2023-07-08T02:33:42;100110.53;;;18.26;100.00
804;BME280;25687;49.976;8.240;2023-07-08T02:36:07;100109.44;;;18.29;100.00
804;BME280;25687;49.976;8.240;2023-07-08T02:38:32;100115.78;;;18.36;100.00
804;BME280;25687;49.976;8.240;2023-07-08T02:40:58;100121.97;;;18.45;100.00
804;BME280;25687;49.976;8.240;2023-07-08T02:43:23;100121.41;;;18.51;100.00
804;BME280;25687;49.976;8.240;2023-07-08T02:45:50;100121.41;;;18.51;100.00
804;BME280;25687;49.976;8.240;2023-07-08T02:48:17;100116.72;;;18.35;100.00
804;BME280;25687;49.976;8.240;2023-07-08T02:50:42;100119.03;;;18.18;100.00
804;BME280;25687;49.976;8.240;2023-07-08T02:53:07;100107.19;;;18.04;100.00
804;BME280;25687;49.976;8.240;2023-07-08T02:55:33;100116.25;;;18.10;100.00
804;BME280;25687;49.976;8.240;2023-07-08T02:57:58;100120.88;;;18.06;100.00
804;BME280;25687;49.976;8.240;2023-07-08T03:00:23;100122.00;;;18.14;100.00
804;BME280;25687;49.976;8.240;2023-07-08T03:02:49;100120.88;;;18.06;100.00
804;BME280;25687;49.976;8.240;2023-07-08T03:05:14;100123.91;;;18.12;100.00
804;BME280;25687;49.976;8.240;2023-07-08T03:07:39;100115.72;;;18.16;100.00
804;BME280;25687;49.976;8.240;2023-07-08T03:10:05;100117.09;;;18.20;100.00
804;BME280;25687;49.976;8.240;2023-07-08T03:12:31;100120.09;;;18.16;100.00
804;BME280;25687;49.976;8.240;2023-07-08T03:14:56;100130.28;;;18.29;100.00
804;BME280;25687;49.976;8.240;2023-07-08T03:17:22;100125.25;;;18.37;100.00
804;BME280;25687;49.976;8.240;2023-07-08T03:19:47;100124.25;;;18.38;100.00
804;BME280;25687;49.976;8.240;2023-07-08T03:22:13;100128.13;;;18.44;100.00
804;BME280;25687;49.976;8.240;2023-07-08T03:24:38;100127.84;;;18.57;100.00
804;BME280;25687;49.976;8.240;2023-07-08T03:27:11;100128.56;;;18.68;100.00
804;BME280;25687;49.976;8.240;2023-07-08T03:29:36;100131.31;;;18.77;100.00
804;BME280;25687;49.976;8.240;2023-07-08T03:32:02;100122.28;;;18.81;100.00
804;BME280;25687;49.976;8.240;2023-07-08T03:34:27;100124.47;;;18.85;100.00
804;BME280;25687;49.976;8.240;2023-07-08T03:36:52;100127.06;;;18.85;100.00
804;BME280;25687;49.976;8.240;2023-07-08T03:39:21;100131.47;;;18.95;100.00
804;BME280;25687;49.976;8.240;2023-07-08T03:41:49;100125.88;;;18.99;100.00
804;BME280;25687;49.976;8.240;2023-07-08T03:44:15;100126.13;;;19.06;100.00
804;BME280;25687;49.976;8.240;2023-07-08T03:46:42;100127.50;;;19.10;98.12
804;BME280;25687;49.976;8.240;2023-07-08T03:49:09;100127.78;;;19.17;98.80
804;BME280;25687;49.976;8.240;2023-07-08T03:51:36;100127.91;;;19.25;98.79
804;BME280;25687;49.976;8.240;2023-07-08T03:54:02;100130.06;;;19.30;98.98
804;BME280;25687;49.976;8.240;2023-07-08T03:56:27;100131.00;;;19.39;99.49
804;BME280;25687;49.976;8.240;2023-07-08T03:58:53;100139.13;;;19.35;100.00
804;BME280;25687;49.976;8.240;2023-07-08T04:01:22;100140.38;;;19.41;97.56
804;BME280;25687;49.976;8.240;2023-07-08T04:03:52;100145.03;;;19.47;98.12
804;BME280;25687;49.976;8.240;2023-07-08T04:06:18;100133.59;;;19.58;98.74
804;BME280;25687;49.976;8.240;2023-07-08T04:08:44;100142.50;;;19.65;97.42
804;BME280;25687;49.976;8.240;2023-07-08T04:11:13;100143.44;;;19.74;93.03
804;BME280;25687;49.976;8.240;2023-07-08T04:13:39;100144.66;;;19.80;91.65
804;BME280;25687;49.976;8.240;2023-07-08T04:16:05;100141.50;;;19.86;91.03
804;BME280;25687;49.976;8.240;2023-07-08T04:18:31;100134.38;;;19.78;94.06
804;BME280;25687;49.976;8.240;2023-07-08T04:20:56;100137.41;;;19.83;94.65
804;BME280;25687;49.976;8.240;2023-07-08T04:23:22;100135.03;;;19.90;91.71
804;BME280;25687;49.976;8.240;2023-07-08T04:25:49;100143.44;;;19.84;90.25
804;BME280;25687;49.976;8.240;2023-07-08T04:28:15;100141.81;;;20.11;89.38
804;BME280;25687;49.976;8.240;2023-07-08T04:30:41;100141.84;;;20.29;89.84
804;BME280;25687;49.976;8.240;2023-07-08T04:33:08;100142.50;;;20.41;92.60
804;BME280;25687;49.976;8.240;2023-07-08T04:35:34;100148.78;;;20.48;93.24
804;BME280;25687;49.976;8.240;2023-07-08T04:38:00;100156.47;;;20.50;94.65
804;BME280;25687;49.976;8.240;2023-07-08T04:40:26;100161.09;;;20.56;94.10
804;BME280;25687;49.976;8.240;2023-07-08T04:42:52;100163.88;;;20.54;91.02
804;BME280;25687;49.976;8.240;2023-07-08T04:45:17;100161.38;;;20.53;88.53
804;BME280;25687;49.976;8.240;2023-07-08T04:47:43;100164.09;;;20.61;87.57
804;BME280;25687;49.976;8.240;2023-07-08T04:50:12;100166.78;;;20.69;86.95
804;BME280;25687;49.976;8.240;2023-07-08T04:52:37;100179.44;;;20.74;88.82
804;BME280;25687;49.976;8.240;2023-07-08T04:55:03;100172.63;;;20.81;90.58
804;BME280;25687;49.976;8.240;2023-07-08T04:57:28;100169.91;;;20.83;91.75
804;BME280;25687;49.976;8.240;2023-07-08T04:59:54;100174.53;;;20.89;91.48
804;BME280;25687;49.976;8.240;2023-07-08T05:02:19;100167.19;;;20.92;89.81
804;BME280;25687;49.976;8.240;2023-07-08T05:04:45;100163.69;;;21.02;87.98
804;BME280;25687;49.976;8.240;2023-07-08T05:07:10;100163.06;;;20.90;88.39
804;BME280;25687;49.976;8.240;2023-07-08T05:09:35;100159.94;;;20.86;89.26
804;BME280;25687;49.976;8.240;2023-07-08T05:12:01;100154.66;;;20.78;90.78
804;BME280;25687;49.976;8.240;2023-07-08T05:14:26;100150.22;;;20.78;91.20
804;BME280;25687;49.976;8.240;2023-07-08T05:16:51;100161.16;;;20.92;92.88
804;BME280;25687;49.976;8.240;2023-07-08T05:19:16;100169.66;;;21.12;91.29
804;BME280;25687;49.976;8.240;2023-07-08T05:21:42;100170.81;;;21.36;91.58
804;BME280;25687;49.976;8.240;2023-07-08T05:24:08;100178.34;;;21.57;91.58
804;BME280;25687;49.976;8.240;2023-07-08T05:26:33;100179.91;;;21.68;88.98
804;BME280;25687;49.976;8.240;2023-07-08T05:28:59;100179.78;;;21.77;86.62
804;BME280;25687;49.976;8.240;2023-07-08T05:31:24;100183.25;;;21.78;79.63
804;BME280;25687;49.976;8.240;2023-07-08T05:33:50;100180.31;;;21.81;77.88
804;BME280;25687;49.976;8.240;2023-07-08T05:36:16;100182.66;;;21.66;75.65
804;BME280;25687;49.976;8.240;2023-07-08T05:38:41;100177.44;;;21.48;68.93
804;BME280;25687;49.976;8.240;2023-07-08T05:41:06;100172.88;;;21.50;70.23
804;BME280;25687;49.976;8.240;2023-07-08T05:43:32;100175.94;;;21.45;68.18
804;BME280;25687;49.976;8.240;2023-07-08T05:45:59;100173.78;;;21.59;65.02
804;BME280;25687;49.976;8.240;2023-07-08T05:48:24;100177.09;;;21.61;63.66
804;BME280;25687;49.976;8.240;2023-07-08T05:50:50;100183.09;;;21.80;61.33
804;BME280;25687;49.976;8.240;2023-07-08T05:53:18;100181.34;;;21.97;62.84
804;BME280;25687;49.976;8.240;2023-07-08T05:55:44;100181.56;;;22.03;56.63
804;BME280;25687;49.976;8.240;2023-07-08T05:58:10;100188.22;;;22.24;56.62
804;BME280;25687;49.976;8.240;2023-07-08T06:00:36;100184.81;;;22.32;56.08
804;BME280;25687;49.976;8.240;2023-07-08T06:03:01;100184.47;;;22.27;53.95
804;BME280;25687;49.976;8.240;2023-07-08T06:05:26;100201.41;;;22.49;54.68
804;BME280;25687;49.976;8.240;2023-07-08T06:07:51;100208.38;;;22.66;58.53
804;BME280;25687;49.976;8.240;2023-07-08T06:10:17;100205.78;;;22.83;57.98
804;BME280;25687;49.976;8.240;2023-07-08T06:12:42;100201.63;;;22.72;63.43
804;BME280;25687;49.976;8.240;2023-07-08T06:15:08;100200.16;;;22.69;62.20
804;BME280;25687;49.976;8.240;2023-07-08T06:17:33;100201.31;;;22.67;60.25
804;BME280;25687;49.976;8.240;2023-07-08T06:19:58;100209.50;;;21.95;68.07
804;BME280;25687;49.976;8.240;2023-07-08T06:22:24;100206.63;;;21.53;77.54
804;BME280;25687;49.976;8.240;2023-07-08T06:24:49;100205.63;;;21.10;75.25
804;BME280;25687;49.976;8.240;2023-07-08T06:27:14;100222.78;;;21.12;73.12
804;BME280;25687;49.976;8.240;2023-07-08T06:29:40;100222.09;;;21.65;65.24
804;BME280;25687;49.976;8.240;2023-07-08T06:32:06;100212.94;;;22.30;66.15
804;BME280;25687;49.976;8.240;2023-07-08T06:34:31;100221.91;;;22.53;58.36
804;BME280;25687;49.976;8.240;2023-07-08T06:36:57;100216.22;;;22.66;57.76
804;BME280;25687;49.976;8.240;2023-07-08T06:39:22;100225.72;;;22.67;56.66
804;BME280;25687;49.976;8.240;2023-07-08T06:41:47;100237.44;;;22.98;56.35
804;BME280;25687;49.976;8.240;2023-07-08T06:44:13;100251.59;;;23.38;60.72
804;BME280;25687;49.976;8.240;2023-07-08T06:46:38;100257.50;;;23.73;57.91
804;BME280;25687;49.976;8.240;2023-07-08T06:49:03;100261.28;;;23.95;57.14
804;BME280;25687;49.976;8.240;2023-07-08T06:51:29;100260.56;;;24.18;49.82
804;BME280;25687;49.976;8.240;2023-07-08T06:53:54;100251.03;;;24.17;48.98
804;BME280;25687;49.976;8.240;2023-07-08T06:56:20;100247.63;;;24.00;49.67
804;BME280;25687;49.976;8.240;2023-07-08T06:58:45;100258.59;;;24.04;50.39
804;BME280;25687;49.976;8.240;2023-07-08T07:01:11;100265.00;;;24.17;56.99
804;BME280;25687;49.976;8.240;2023-07-08T07:03:37;100257.34;;;24.39;50.32
804;BME280;25687;49.976;8.240;2023-07-08T07:06:03;100260.91;;;23.98;53.23
804;BME280;25687;49.976;8.240;2023-07-08T07:08:28;100261.44;;;23.52;55.81
804;BME280;25687;49.976;8.240;2023-07-08T07:10:53;100254.53;;;23.27;62.28
804;BME280;25687;49.976;8.240;2023-07-08T07:13:18;100267.84;;;23.25;61.30
804;BME280;25687;49.976;8.240;2023-07-08T07:15:44;100269.00;;;23.47;58.99
804;BME280;25687;49.976;8.240;2023-07-08T07:18:09;100263.22;;;23.60;54.19
804;BME280;25687;49.976;8.240;2023-07-08T07:20:37;100271.28;;;23.67;60.47
804;BME280;25687;49.976;8.240;2023-07-08T07:23:02;100273.06;;;23.91;58.52
804;BME280;25687;49.976;8.240;2023-07-08T07:25:28;100269.59;;;24.15;54.21
804;BME280;25687;49.976;8.240;2023-07-08T07:27:53;100263.50;;;24.63;52.38
804;BME280;25687;49.976;8.240;2023-07-08T07:30:18;100264.25;;;24.80;52.05
804;BME280;25687;49.976;8.240;2023-07-08T07:32:44;100266.38;;;25.31;49.78
804;BME280;25687;49.976;8.240;2023-07-08T07:35:10;100260.97;;;25.56;47.32
804;BME280;25687;49.976;8.240;2023-07-08T07:37:42;100268.91;;;25.86;51.92
804;BME280;25687;49.976;8.240;2023-07-08T07:40:09;100275.03;;;26.46;42.67
804;BME280;25687;49.976;8.240;2023-07-08T07:42:40;100271.00;;;26.65;41.73
804;BME280;25687;49.976;8.240;2023-07-08T07:45:06;100268.19;;;29.07;39.18
804;BME280;25687;49.976;8.240;2023-07-08T07:47:32;100276.19;;;31.75;32.91
804;BME280;25687;49.976;8.240;2023-07-08T07:49:57;100277.66;;;33.72;29.34
804;BME280;25687;49.976;8.240;2023-07-08T07:52:23;100297.50;;;33.22;28.30
804;BME280;25687;49.976;8.240;2023-07-08T07:54:50;100287.41;;;34.42;27.10
804;BME280;25687;49.976;8.240;2023-07-08T07:57:16;100295.22;;;32.53;27.57
804;BME280;25687;49.976;8.240;2023-07-08T07:59:41;100285.25;;;31.42;28.86
804;BME280;25687;49.976;8.240;2023-07-08T08:02:07;100276.66;;;31.21;28.89
804;BME280;25687;49.976;8.240;2023-07-08T08:04:33;100274.28;;;31.57;28.99
804;BME280;25687;49.976;8.240;2023-07-08T08:06:58;100263.44;;;31.01;30.17
804;BME280;25687;49.976;8.240;2023-07-08T08:09:24;100274.34;;;32.12;27.62
804;BME280;25687;49.976;8.240;2023-07-08T08:11:49;100274.78;;;31.72;29.29
804;BME280;25687;49.976;8.240;2023-07-08T08:14:14;100278.03;;;31.49;29.41
804;BME280;25687;49.976;8.240;2023-07-08T08:16:39;100285.47;;;32.28;29.24
804;BME280;25687;49.976;8.240;2023-07-08T08:19:05;100284.25;;;31.86;28.41
804;BME280;25687;49.976;8.240;2023-07-08T08:21:30;100285.25;;;32.29;27.96
804;BME280;25687;49.976;8.240;2023-07-08T08:23:55;100287.47;;;32.81;26.93
804;BME280;25687;49.976;8.240;2023-07-08T08:26:20;100277.41;;;33.61;25.78
804;BME280;25687;49.976;8.240;2023-07-08T08:28:46;100280.34;;;34.65;24.43
804;BME280;25687;49.976;8.240;2023-07-08T08:31:11;100276.69;;;34.02;24.83
804;BME280;25687;49.976;8.240;2023-07-08T08:33:36;100283.34;;;33.52;25.58
804;BME280;25687;49.976;8.240;2023-07-08T08:36:02;100287.13;;;33.44;25.40
804;BME280;25687;49.976;8.240;2023-07-08T08:38:27;100289.25;;;35.00;24.38
804;BME280;25687;49.976;8.240;2023-07-08T08:40:52;100286.16;;;35.98;22.75
804;BME280;25687;49.976;8.240;2023-07-08T08:43:23;100286.19;;;35.42;24.88
804;BME280;25687;49.976;8.240;2023-07-08T08:46:01;100288.53;;;36.39;23.08
804;BME280;25687;49.976;8.240;2023-07-08T08:48:32;100290.16;;;35.39;24.23
804;BME280;25687;49.976;8.240;2023-07-08T08:51:07;100277.59;;;33.12;26.04
804;BME280;25687;49.976;8.240;2023-07-08T08:53:34;100280.38;;;33.18;27.05
804;BME280;25687;49.976;8.240;2023-07-08T08:56:25;100277.38;;;32.16;27.66
804;BME280;25687;49.976;8.240;2023-07-08T08:59:10;100279.16;;;31.85;27.01
804;BME280;25687;49.976;8.240;2023-07-08T09:01:38;100283.03;;;30.74;30.00
804;BME280;25687;49.976;8.240;2023-07-08T09:04:10;100287.69;;;31.43;30.90
804;BME280;25687;49.976;8.240;2023-07-08T09:06:38;100286.88;;;30.33;29.47
804;BME280;25687;49.976;8.240;2023-07-08T09:09:18;100285.94;;;31.55;29.60
804;BME280;25687;49.976;8.240;2023-07-08T09:12:03;100289.09;;;30.36;29.60
804;BME280;25687;49.976;8.240;2023-07-08T09:14:31;100288.25;;;31.96;28.56
804;BME280;25687;49.976;8.240;2023-07-08T09:17:11;100294.09;;;32.42;26.65
804;BME280;25687;49.976;8.240;2023-07-08T09:19:55;100290.94;;;32.82;26.49
804;BME280;25687;49.976;8.240;2023-07-08T09:22:43;100278.63;;;33.11;26.58
804;BME280;25687;49.976;8.240;2023-07-08T09:25:43;100281.88;;;33.25;27.26
804;BME280;25687;49.976;8.240;2023-07-08T09:28:13;100278.00;;;33.87;25.36
804;BME280;25687;49.976;8.240;2023-07-08T09:30:39;100274.13;;;31.95;28.29
804;BME280;25687;49.976;8.240;2023-07-08T09:33:04;100269.38;;;31.35;29.02
804;BME280;25687;49.976;8.240;2023-07-08T09:35:50;100268.59;;;31.78;29.01
804;BME280;25687;49.976;8.240;2023-07-08T09:38:18;100259.97;;;32.69;29.79
804;BME280;25687;49.976;8.240;2023-07-08T09:40:48;100261.53;;;31.91;28.34
804;BME280;25687;49.976;8.240;2023-07-08T09:43:28;100260.81;;;32.51;27.93
804;BME280;25687;49.976;8.240;2023-07-08T09:45:59;100256.28;;;31.59;28.87
804;BME280;25687;49.976;8.240;2023-07-08T09:48:30;100250.91;;;30.37;30.83
804;BME280;25687;49.976;8.240;2023-07-08T09:50:58;100248.06;;;31.67;28.73
804;BME280;25687;49.976;8.240;2023-07-08T09:53:24;100244.69;;;33.19;27.35
804;BME280;25687;49.976;8.240;2023-07-08T09:55:50;100243.31;;;34.57;25.25
804;BME280;25687;49.976;8.240;2023-07-08T09:58:23;100255.22;;;36.30;24.28
804;BME280;25687;49.976;8.240;2023-07-08T10:00:53;100251.91;;;37.95;23.13
804;BME280;25687;49.976;8.240;2023-07-08T10:03:30;100251.38;;;35.98;25.75
804;BME280;25687;49.976;8.240;2023-07-08T10:05:57;100255.09;;;34.73;26.19
804;BME280;25687;49.976;8.240;2023-07-08T10:08:30;100251.69;;;34.20;26.17
804;BME280;25687;49.976;8.240;2023-07-08T10:11:12;100255.72;;;36.05;25.64
804;BME280;25687;49.976;8.240;2023-07-08T10:13:46;100258.22;;;36.88;23.02
804;BME280;25687;49.976;8.240;2023-07-08T10:16:14;100249.63;;;36.86;22.60
804;BME280;25687;49.976;8.240;2023-07-08T10:18:40;100256.03;;;37.55;22.53
804;BME280;25687;49.976;8.240;2023-07-08T10:24:22;100249.97;;;35.34;24.45
804;BME280;25687;49.976;8.240;2023-07-08T10:26:59;100248.00;;;35.64;24.54
804;BME280;25687;49.976;8.240;2023-07-08T10:32:31;100239.16;;;35.46;24.53
804;BME280;25687;49.976;8.240;2023-07-08T10:35:21;100252.75;;;36.50;24.07
804;BME280;25687;49.976;8.240;2023-07-08T10:40:31;100252.88;;;37.74;24.43
804;BME280;25687;49.976;8.240;2023-07-08T10:43:14;100250.56;;;37.88;22.21
804;BME280;25687;49.976;8.240;2023-07-08T10:48:41;100246.13;;;35.86;25.26
804;BME280;25687;49.976;8.240;2023-07-08T10:56:41;100239.84;;;34.27;27.33
804;BME280;25687;49.976;8.240;2023-07-08T11:04:58;100245.69;;;32.14;29.93
804;BME280;25687;49.976;8.240;2023-07-08T11:10:31;100233.28;;;30.95;32.25
804;BME280;25687;49.976;8.240;2023-07-08T11:13:07;100223.06;;;31.24;32.45
804;BME280;25687;49.976;8.240;2023-07-08T11:15:57;100224.88;;;30.66;33.33
804;BME280;25687;49.976;8.240;2023-07-08T11:21:29;100234.59;;;30.79;34.84
804;BME280;25687;49.976;8.240;2023-07-08T11:24:05;100227.88;;;31.34;33.65
804;BME280;25687;49.976;8.240;2023-07-08T11:26:41;100225.69;;;31.49;33.60
804;BME280;25687;49.976;8.240;2023-07-08T11:29:18;100226.03;;;31.34;35.21
804;BME280;25687;49.976;8.240;2023-07-08T11:31:45;100230.44;;;30.90;34.61
804;BME280;25687;49.976;8.240;2023-07-08T11:34:12;100221.31;;;30.79;33.80
804;BME280;25687;49.976;8.240;2023-07-08T11:36:39;100218.97;;;30.64;35.46
804;BME280;25687;49.976;8.240;2023-07-08T11:39:44;100211.88;;;30.51;34.49
804;BME280;25687;49.976;8.240;2023-07-08T11:42:16;100208.75;;;30.68;35.07
804;BME280;25687;49.976;8.240;2023-07-08T11:44:45;100208.66;;;30.49;35.54
804;BME280;25687;49.976;8.240;2023-07-08T11:47:18;100211.88;;;30.51;36.49
804;BME280;25687;49.976;8.240;2023-07-08T11:49:46;100211.97;;;30.70;35.59
804;BME280;25687;49.976;8.240;2023-07-08T11:52:16;100211.19;;;30.69;35.45
804;BME280;25687;49.976;8.240;2023-07-08T11:54:46;100201.97;;;30.26;36.24
804;BME280;25687;49.976;8.240;2023-07-08T11:57:38;100201.69;;;30.48;36.09
804;BME280;25687;49.976;8.240;2023-07-08T12:00:19;100198.38;;;30.59;36.32
804;BME280;25687;49.976;8.240;2023-07-08T12:03:03;100197.66;;;30.78;35.29
804;BME280;25687;49.976;8.240;2023-07-08T12:05:36;100194.06;;;30.90;36.77
804;BME280;25687;49.976;8.240;2023-07-08T12:08:12;100201.72;;;31.05;34.69
804;BME280;25687;49.976;8.240;2023-07-08T12:10:40;100196.38;;;31.37;36.95
804;BME280;25687;49.976;8.240;2023-07-08T12:13:14;100195.84;;;31.29;35.19
804;BME280;25687;49.976;8.240;2023-07-08T12:15:41;100190.13;;;31.00;35.37
804;BME280;25687;49.976;8.240;2023-07-08T12:18:13;100191.41;;;31.22;35.54
804;BME280;25687;49.976;8.240;2023-07-08T12:20:42;100194.25;;;31.46;34.90
804;BME280;25687;49.976;8.240;2023-07-08T12:23:18;100193.34;;;31.52;33.84
804;BME280;25687;49.976;8.240;2023-07-08T12:25:44;100187.47;;;31.69;34.99
804;BME280;25687;49.976;8.240;2023-07-08T12:28:10;100183.00;;;31.44;35.06
804;BME280;25687;49.976;8.240;2023-07-08T12:30:38;100187.44;;;31.50;35.77
804;BME280;25687;49.976;8.240;2023-07-08T12:33:10;100186.41;;;31.51;34.22
804;BME280;25687;49.976;8.240;2023-07-08T12:35:37;100183.53;;;31.53;34.44
804;BME280;25687;49.976;8.240;2023-07-08T12:40:40;100185.50;;;31.39;34.61
804;BME280;25687;49.976;8.240;2023-07-08T12:43:09;100184.13;;;31.55;34.92
804;BME280;25687;49.976;8.240;2023-07-08T12:45:34;100183.97;;;31.31;34.23
804;BME280;25687;49.976;8.240;2023-07-08T12:48:00;100181.97;;;31.45;34.92
804;BME280;25687;49.976;8.240;2023-07-08T12:50:25;100188.97;;;31.83;33.80
804;BME280;25687;49.976;8.240;2023-07-08T12:52:50;100183.03;;;31.81;33.87
804;BME280;25687;49.976;8.240;2023-07-08T12:55:16;100185.94;;;31.80;33.97
804;BME280;25687;49.976;8.240;2023-07-08T12:57:44;100173.81;;;31.65;33.84
804;BME280;25687;49.976;8.240;2023-07-08T13:00:14;100176.38;;;32.09;33.25
804;BME280;25687;49.976;8.240;2023-07-08T13:02:40;100184.78;;;32.06;32.64
804;BME280;25687;49.976;8.240;2023-07-08T13:05:06;100176.28;;;32.16;30.99
804;BME280;25687;49.976;8.240;2023-07-08T13:07:36;100179.53;;;32.48;33.15
804;BME280;25687;49.976;8.240;2023-07-08T13:10:04;100168.09;;;32.48;33.60
804;BME280;25687;49.976;8.240;2023-07-08T13:12:31;100175.78;;;32.26;31.98
804;BME280;25687;49.976;8.240;2023-07-08T13:14:58;100173.84;;;32.14;32.17
804;BME280;25687;49.976;8.240;2023-07-08T13:17:25;100169.69;;;32.18;31.97
804;BME280;25687;49.976;8.240;2023-07-08T13:19:51;100166.34;;;32.42;31.50
804;BME280;25687;49.976;8.240;2023-07-08T13:22:19;100172.19;;;32.74;30.76
804;BME280;25687;49.976;8.240;2023-07-08T13:24:46;100170.34;;;32.32;30.51
804;BME280;25687;49.976;8.240;2023-07-08T13:27:23;100173.78;;;32.21;30.66
804;BME280;25687;49.976;8.240;2023-07-08T13:29:51;100160.91;;;32.18;30.96
804;BME280;25687;49.976;8.240;2023-07-08T13:32:17;100170.84;;;32.41;30.72
804;BME280;25687;49.976;8.240;2023-07-08T13:34:42;100162.38;;;32.14;29.35
804;BME280;25687;49.976;8.240;2023-07-08T13:37:12;100153.78;;;32.00;30.26
804;BME280;25687;49.976;8.240;2023-07-08T13:39:43;100156.50;;;32.12;30.48
804;BME280;25687;49.976;8.240;2023-07-08T13:42:09;100166.66;;;31.84;30.95
804;BME280;25687;49.976;8.240;2023-07-08T13:44:34;100157.31;;;31.94;30.97
804;BME280;25687;49.976;8.240;2023-07-08T13:47:20;100163.75;;;32.05;30.81
804;BME280;25687;49.976;8.240;2023-07-08T13:49:48;100158.78;;;32.27;29.90
804;BME280;25687;49.976;8.240;2023-07-08T13:52:19;100158.84;;;32.20;29.31
804;BME280;25687;49.976;8.240;2023-07-08T13:55:01;100156.06;;;32.45;29.85
804;BME280;25687;49.976;8.240;2023-07-08T13:57:34;100158.16;;;32.55;28.84